Time;durP1;ratioP1;P1;durP2;ratioP2;P2;SDS_P1;SDS_P2;PMS_P1;PMS_P2;Temp;Humidity;BMP_temperature;BMP_pressure;BME280_temperature;BME280_humidity;BME280_pressure;Samples;Min_cycle;Max_cycle;Signal;HPM_P1;HPM_P2
2022/09/25 05:02:04;;;;;;;21.48;13.82;;;12.60;99.90;;;;;;6112187;23;20325;-74
2022/09/25 05:04:30;;;;;;;19.88;11.88;;;12.60;99.90;;;;;;6167026;23;20001;-76
2022/09/25 05:06:55;;;;;;;23.38;13.57;;;12.60;99.90;;;;;;6192512;23;20036;-74
2022/09/25 05:09:21;;;;;;;21.60;13.18;;;12.60;99.90;;;;;;6193741;23;20001;-75
2022/09/25 05:11:47;;;;;;;21.00;13.82;;;12.60;99.90;;;;;;6194150;23;20017;-77
2022/09/25 05:14:13;;;;;;;19.00;12.05;;;12.50;99.90;;;;;;6194343;23;20020;-74
2022/09/25 05:16:39;;;;;;;20.38;12.75;;;12.60;99.90;;;;;;6193594;23;20001;-73
2022/09/25 05:19:04;;;;;;;19.63;13.07;;;12.50;99.90;;;;;;6194093;23;20011;-74
2022/09/25 05:21:31;;;;;;;20.55;12.75;;;12.50;99.90;;;;;;6193858;23;19997;-75
2022/09/25 05:23:58;;;;;;;21.02;13.15;;;12.40;99.90;;;;;;6193855;23;20278;-75
2022/09/25 05:26:24;;;;;;;19.73;12.90;;;12.40;99.90;;;;;;6193051;23;20056;-75
2022/09/25 05:28:50;;;;;;;19.42;12.45;;;12.50;99.90;;;;;;6194236;23;19993;-76
2022/09/25 05:31:16;;;;;;;18.98;12.25;;;12.40;99.90;;;;;;6167628;23;20298;-75
2022/09/25 05:33:42;;;;;;;19.27;11.65;;;12.50;99.90;;;;;;6192515;23;20403;-74
2022/09/25 05:36:08;;;;;;;19.00;12.02;;;12.40;99.90;;;;;;6193972;23;20098;-76
2022/09/25 05:38:36;;;;;;;18.10;11.90;;;12.40;99.90;;;;;;6192583;23;20163;-74
2022/09/25 05:41:09;;;;;;;19.57;11.80;;;12.50;99.90;;;;;;6192831;23;20001;-77
2022/09/25 05:43:41;;;;;;;18.38;11.32;;;12.50;99.90;;;;;;6217233;23;20558;-76
2022/09/25 05:46:07;;;;;;;17.85;11.55;;;12.40;99.90;;;;;;6193837;23;20005;-76
2022/09/25 05:48:34;;;;;;;16.65;9.80;;;12.40;99.90;;;;;;6167388;23;20295;-76
2022/09/25 05:51:00;;;;;;;14.98;9.90;;;12.40;99.90;;;;;;6193666;23;20001;-76
2022/09/25 05:53:26;;;;;;;16.10;9.25;;;12.40;99.90;;;;;;6193150;23;20052;-78
2022/09/25 05:55:56;;;;;;;21.40;15.05;;;12.50;99.90;;;;;;6191502;23;20001;-77
2022/09/25 05:58:24;;;;;;;24.02;18.70;;;12.50;99.90;;;;;;6193654;23;20051;-78
2022/09/25 06:00:53;;;;;;;18.40;11.43;;;12.50;99.90;;;;;;6168796;23;20060;-75
2022/09/25 06:03:20;;;;;;;15.27;9.30;;;12.60;99.90;;;;;;6216143;23;20032;-78
2022/09/25 06:05:47;;;;;;;13.23;9.13;;;12.60;99.90;;;;;;6223354;23;20217;-77
2022/09/25 06:08:13;;;;;;;16.77;9.57;;;12.60;99.90;;;;;;6223623;23;20031;-77
2022/09/25 06:10:40;;;;;;;14.88;8.63;;;12.60;99.90;;;;;;6196879;23;20308;-75
2022/09/25 06:13:07;;;;;;;13.93;9.18;;;12.70;99.90;;;;;;6196931;23;20008;-77
2022/09/25 06:15:36;;;;;;;12.52;8.63;;;12.70;99.90;;;;;;6196853;23;20012;-75
2022/09/25 06:18:04;;;;;;;13.93;8.65;;;12.70;99.90;;;;;;6197282;23;20016;-78
2022/09/25 06:20:30;;;;;;;13.05;8.90;;;12.80;99.90;;;;;;6196915;23;20116;-78
2022/09/25 06:23:02;;;;;;;14.30;8.85;;;12.90;99.90;;;;;;6172755;23;20004;-77
2022/09/25 06:25:31;;;;;;;11.65;8.25;;;13.00;99.90;;;;;;6196239;23;20000;-71
2022/09/25 06:27:59;;;;;;;14.13;9.05;;;13.10;99.90;;;;;;6223389;23;20302;-71
2022/09/25 06:30:29;;;;;;;11.38;7.43;;;13.10;99.90;;;;;;6222757;23;20059;-72
2022/09/25 06:32:59;;;;;;;10.50;7.50;;;13.10;99.90;;;;;;6223883;23;20193;-72
2022/09/25 06:35:29;;;;;;;42.72;30.90;;;13.20;99.90;;;;;;6222885;23;20003;-75
2022/09/25 06:37:58;;;;;;;26.85;20.00;;;13.20;99.90;;;;;;6223322;23;20222;-71
2022/09/25 06:40:30;;;;;;;13.80;9.45;;;13.30;99.90;;;;;;6197033;23;20213;-72
2022/09/25 06:43:00;;;;;;;11.63;7.70;;;13.30;99.90;;;;;;6222867;23;19996;-71
2022/09/25 06:45:28;;;;;;;11.07;7.35;;;13.30;99.90;;;;;;6222887;23;20001;-72
2022/09/25 06:47:59;;;;;;;11.52;7.57;;;13.30;99.90;;;;;;6197087;23;20074;-73
2022/09/25 06:50:50;;;;;;;11.10;7.75;;;13.30;99.90;;;;;;6223953;23;20000;-72
2022/09/25 06:53:18;;;;;;;11.38;7.07;;;13.30;99.90;;;;;;6225020;23;20016;-71
2022/09/25 06:55:44;;;;;;;11.05;7.57;;;13.40;99.90;;;;;;6224240;23;20000;-73
2022/09/25 06:58:13;;;;;;;12.05;7.28;;;13.50;99.90;;;;;;6224409;23;20016;-75
2022/09/25 07:00:39;;;;;;;10.55;7.28;;;13.60;99.90;;;;;;6225272;23;20312;-73
2022/09/25 07:05:49;;;;;;;9.55;6.65;;;13.70;99.90;;;;;;6198619;23;20001;-73
2022/09/25 07:08:17;;;;;;;9.75;6.75;;;13.80;99.90;;;;;;6226365;23;20023;-70
2022/09/25 07:10:51;;;;;;;9.73;6.95;;;13.80;99.90;;;;;;6230384;23;20020;-71
2022/09/25 07:13:23;;;;;;;9.57;6.05;;;13.90;99.90;;;;;;6230671;23;20306;-70
2022/09/25 07:16:12;;;;;;;11.05;7.35;;;14.00;99.90;;;;;;6229328;23;20001;-70
2022/09/25 07:18:38;;;;;;;10.88;7.53;;;14.10;99.90;;;;;;6225071;23;19996;-76
2022/09/25 07:21:07;;;;;;;11.20;8.00;;;14.10;99.90;;;;;;6225279;23;20031;-72
2022/09/25 07:23:33;;;;;;;13.68;9.02;;;14.10;99.90;;;;;;6224794;23;20332;-72
2022/09/25 07:26:33;;;;;;;12.10;7.53;;;14.20;99.90;;;;;;6226727;23;20020;-71
2022/09/25 07:29:05;;;;;;;10.95;7.50;;;14.20;99.90;;;;;;6130142;23;20324;-71
2022/09/25 07:31:32;;;;;;;11.45;7.85;;;14.30;99.90;;;;;;6224618;23;20003;-71
2022/09/25 07:34:01;;;;;;;11.40;8.02;;;14.30;99.90;;;;;;6225808;23;20043;-71
2022/09/25 07:36:27;;;;;;;11.20;7.63;;;14.40;99.90;;;;;;6224297;23;20005;-73
2022/09/25 07:38:53;;;;;;;12.23;8.35;;;14.40;99.90;;;;;;6225119;23;19997;-71
2022/09/25 07:41:23;;;;;;;13.02;8.10;;;14.40;99.90;;;;;;6224782;23;20096;-71
2022/09/25 07:43:57;;;;;;;10.00;7.28;;;14.50;99.90;;;;;;6224402;23;20279;-71
2022/09/25 07:46:24;;;;;;;11.65;8.38;;;14.50;99.90;;;;;;6224853;23;20290;-72
2022/09/25 07:48:49;;;;;;;10.98;7.90;;;14.60;99.90;;;;;;6223896;23;20004;-74
2022/09/25 07:51:16;;;;;;;12.88;8.00;;;14.60;99.90;;;;;;6224885;23;19997;-71
2022/09/25 07:53:42;;;;;;;11.82;8.05;;;14.70;99.90;;;;;;6197593;23;20051;-71
2022/09/25 07:56:09;;;;;;;12.60;8.35;;;14.80;99.90;;;;;;6224985;23;20063;-69
2022/09/25 07:58:35;;;;;;;12.35;7.88;;;14.80;99.90;;;;;;6224914;23;20024;-71
2022/09/25 08:01:02;;;;;;;13.25;8.60;;;14.70;99.90;;;;;;6224722;23;20051;-71
2022/09/25 08:03:28;;;;;;;12.85;8.70;;;14.70;99.90;;;;;;6197005;23;20060;-71
2022/09/25 08:06:02;;;;;;;12.05;8.68;;;14.70;99.90;;;;;;6224835;23;20016;-72
2022/09/25 08:08:28;;;;;;;14.13;8.70;;;14.80;99.90;;;;;;6223956;23;20024;-72
2022/09/25 08:11:00;;;;;;;13.48;8.60;;;14.70;99.90;;;;;;6198094;23;20008;-71
2022/09/25 08:13:26;;;;;;;15.13;8.95;;;14.70;99.90;;;;;;6198349;23;20147;-72
2022/09/25 08:15:51;;;;;;;13.25;9.10;;;14.70;99.90;;;;;;6223876;23;20024;-71
2022/09/25 08:18:17;;;;;;;11.50;8.27;;;14.80;99.90;;;;;;6198044;23;20000;-72
2022/09/25 08:20:43;;;;;;;12.35;8.75;;;14.90;99.90;;;;;;6224032;23;20051;-74
2022/09/25 08:23:11;;;;;;;15.18;8.63;;;14.90;99.90;;;;;;6224812;23;20003;-77
2022/09/25 08:25:37;;;;;;;14.85;9.82;;;14.80;99.90;;;;;;6224477;23;20000;-74
2022/09/25 08:28:03;;;;;;;13.07;9.57;;;14.70;99.90;;;;;;6224601;23;20168;-73
2022/09/25 08:30:28;;;;;;;11.80;8.43;;;14.70;99.90;;;;;;6223522;23;20048;-72
2022/09/25 08:32:54;;;;;;;13.40;8.75;;;14.80;99.90;;;;;;6224759;23;20235;-74
2022/09/25 08:35:20;;;;;;;13.40;8.50;;;14.90;99.90;;;;;;6223980;23;20262;-77
2022/09/25 08:37:47;;;;;;;13.13;9.10;;;14.90;99.90;;;;;;6224198;23;20055;-72
2022/09/25 08:40:26;;;;;;;12.50;8.60;;;15.00;99.90;;;;;;6222911;23;20035;-74
2022/09/25 08:42:52;;;;;;;;;;;15.10;99.90;;;;;;6223115;23;19996;-72
2022/09/25 08:51:17;;;;;;;12.30;8.82;;;15.60;99.90;;;;;;6222893;23;20004;-73
2022/09/25 08:53:43;;;;;;;11.75;8.68;;;15.90;99.90;;;;;;6222101;23;20270;-73
2022/09/25 08:56:13;;;;;;;10.35;7.90;;;15.90;99.90;;;;;;6196332;23;20252;-73
2022/09/25 08:58:43;;;;;;;11.25;8.52;;;16.00;99.90;;;;;;6222005;23;20031;-74
2022/09/25 09:01:34;;;;;;;11.38;8.43;;;16.10;99.90;;;;;;6222681;23;20221;-75
2022/09/25 09:04:40;;;;;;;11.63;8.98;;;16.20;99.90;;;;;;6222589;23;20067;-74
2022/09/25 09:07:09;;;;;;;10.48;7.68;;;16.00;99.90;;;;;;6134382;23;20009;-74
2022/09/25 09:10:01;;;;;;;14.32;8.10;;;16.00;99.90;;;;;;6222421;23;20001;-72
2022/09/25 09:12:37;;;;;;;10.25;7.32;;;15.90;99.90;;;;;;6213772;23;20001;-72
2022/09/25 09:15:29;;;;;;;11.02;7.72;;;15.90;99.90;;;;;;6217638;23;20035;-72
2022/09/25 09:18:01;;;;;;;10.75;8.15;;;15.90;99.90;;;;;;6206528;23;20019;-72
2022/09/25 09:20:52;;;;;;;11.25;7.78;;;16.00;99.90;;;;;;6222707;23;20124;-75
2022/09/25 09:23:21;;;;;;;8.35;6.32;;;16.20;99.90;;;;;;6222071;23;20317;-74
2022/09/25 09:25:56;;;;;;;9.48;7.07;;;16.60;99.90;;;;;;6195543;23;20008;-75
2022/09/25 09:28:49;;;;;;;9.90;7.70;;;16.90;99.90;;;;;;6222250;23;20004;-76
2022/09/25 09:31:45;;;;;;;9.63;7.30;;;17.30;99.90;;;;;;6222800;23;20001;-74
2022/09/25 09:34:44;;;;;;;9.80;7.07;;;17.50;99.90;;;;;;6222703;23;19996;-74
2022/09/25 09:37:45;;;;;;;9.20;6.72;;;17.70;99.90;;;;;;6220458;23;20048;-77
2022/09/25 09:40:54;;;;;;;7.22;5.72;;;17.90;99.90;;;;;;6206947;23;20027;-76
2022/09/25 09:43:51;;;;;;;10.82;7.32;;;18.00;99.90;;;;;;6222256;23;19996;-75
2022/09/25 09:46:24;;;;;;;7.22;5.63;;;18.00;99.90;;;;;;6221992;23;20011;-80
2022/09/25 09:49:17;;;;;;;7.85;6.15;;;18.20;99.90;;;;;;6222165;23;20010;-76
2022/09/25 09:51:54;;;;;;;10.95;6.05;;;18.10;99.90;;;;;;6170669;23;20005;-78
2022/09/25 09:54:41;;;;;;;8.75;5.72;;;17.80;99.90;;;;;;6222373;23;20019;-76
2022/09/25 09:57:33;;;;;;;8.10;6.20;;;17.80;99.90;;;;;;6222505;23;20012;-76
2022/09/25 10:00:12;;;;;;;10.05;6.57;;;17.70;99.90;;;;;;6208838;23;19997;-74
2022/09/25 10:02:56;;;;;;;7.57;6.50;;;17.50;99.90;;;;;;6221622;23;20338;-76
2022/09/25 10:05:41;;;;;;;10.32;5.93;;;17.30;99.90;;;;;;6195619;23;20016;-78
2022/09/25 10:08:09;;;;;;;8.60;6.35;;;17.20;99.90;;;;;;6221837;23;20291;-74
2022/09/25 10:10:41;;;;;;;8.00;5.90;;;17.00;99.90;;;;;;6170681;23;20007;-74
2022/09/25 10:13:20;;;;;;;7.78;5.88;;;16.90;99.90;;;;;;6222514;23;20027;-74
2022/09/25 10:16:13;;;;;;;8.32;5.75;;;16.80;99.90;;;;;;6222209;23;20000;-74
2022/09/25 10:18:59;;;;;;;9.48;5.95;;;16.80;99.90;;;;;;6221660;23;20000;-78
2022/09/25 10:21:42;;;;;;;9.07;6.18;;;16.80;99.90;;;;;;6222379;23;20000;-76
2022/09/25 10:24:08;;;;;;;7.53;5.10;;;17.00;99.90;;;;;;6195716;23;20271;-75
2022/09/25 10:26:38;;;;;;;7.35;4.90;;;17.30;99.90;;;;;;6223810;23;20004;-75
2022/09/25 10:29:25;;;;;;;9.32;5.82;;;17.60;99.90;;;;;;6224424;23;20337;-74
2022/09/25 10:32:02;;;;;;;8.30;5.60;;;17.80;99.90;;;;;;6223864;23;20024;-76
2022/09/25 10:34:30;;;;;;;6.85;5.47;;;18.00;99.90;;;;;;6224463;23;19997;-76
2022/09/25 10:36:56;;;;;;;10.75;6.80;;;18.10;99.90;;;;;;6222312;23;20282;-75
2022/09/25 10:39:29;;;;;;;9.10;5.15;;;18.20;99.90;;;;;;6223995;23;20274;-80
2022/09/25 10:41:57;;;;;;;6.93;5.25;;;18.40;99.90;;;;;;6223696;23;20008;-78
2022/09/25 10:44:33;;;;;;;7.57;5.65;;;18.30;99.90;;;;;;6224001;23;20170;-79
2022/09/25 10:50:21;;;;;;;9.60;6.07;;;17.60;99.90;;;;;;6197620;23;20000;-78
2022/09/25 10:52:52;;;;;;;8.32;6.07;;;17.40;99.90;;;;;;6196723;23;20001;-78
2022/09/25 10:55:29;;;;;;;8.88;6.07;;;17.10;99.90;;;;;;6223531;23;20008;-78
2022/09/25 10:58:03;;;;;;;10.38;6.90;;;16.80;99.90;;;;;;6223371;23;20286;-78
2022/09/25 11:00:32;;;;;;;10.73;7.22;;;16.50;99.90;;;;;;6223130;23;20155;-76
2022/09/25 11:03:00;;;;;;;;;;;16.40;99.90;;;;;;6223924;23;20009;-76
2022/09/25 11:05:32;;;;;;;9.88;7.00;;;16.30;99.90;;;;;;6222465;23;19959;-75
2022/09/25 11:08:04;;;;;;;11.05;7.50;;;16.20;99.90;;;;;;6223338;23;20187;-75
2022/09/25 11:10:36;;;;;;;11.35;7.22;;;16.00;99.90;;;;;;6223392;23;20201;-75
2022/09/25 11:13:08;;;;;;;13.07;8.55;;;15.90;99.90;;;;;;6223926;23;20001;-75
2022/09/25 11:15:37;;;;;;;14.27;10.18;;;15.80;99.90;;;;;;6222954;23;20253;-73
2022/09/25 11:18:05;;;;;;;14.77;10.43;;;15.80;99.90;;;;;;6223587;23;20031;-74
2022/09/25 11:20:31;;;;;;;14.77;10.07;;;15.60;99.90;;;;;;6196979;23;20000;-75
2022/09/25 11:23:03;;;;;;;16.77;11.05;;;15.50;99.90;;;;;;6223541;23;20140;-75
2022/09/25 11:25:45;;;;;;;16.60;12.10;;;15.50;99.90;;;;;;6223405;23;20030;-74
2022/09/25 11:28:30;;;;;;;16.13;11.55;;;15.40;99.90;;;;;;6222987;23;20014;-75
2022/09/25 11:31:02;;;;;;;14.27;11.07;;;15.40;99.90;;;;;;6222613;23;20019;-76
2022/09/25 11:33:44;;;;;;;17.05;12.38;;;15.40;99.90;;;;;;6223213;23;19997;-74
2022/09/25 11:36:24;;;;;;;16.52;12.15;;;15.40;99.90;;;;;;6223928;23;20214;-74
2022/09/25 11:41:56;;;;;;;17.60;11.95;;;15.40;99.90;;;;;;6222515;23;20009;-76
2022/09/25 11:44:31;;;;;;;17.70;11.75;;;15.50;99.90;;;;;;6223116;23;20197;-74
2022/09/25 11:47:06;;;;;;;16.75;11.32;;;15.60;99.90;;;;;;6222591;23;20004;-76
2022/09/25 11:49:40;;;;;;;16.63;11.70;;;15.70;99.90;;;;;;6224061;23;20052;-75
2022/09/25 11:52:24;;;;;;;15.98;11.30;;;15.80;99.90;;;;;;6197335;23;20016;-74
2022/09/25 11:55:33;;;;;;;17.05;11.38;;;15.90;99.90;;;;;;6223503;23;20001;-75
2022/09/25 11:58:39;;;;;;;15.88;11.90;;;16.00;99.90;;;;;;6229435;23;20020;-75
2022/09/25 12:01:32;;;;;;;16.90;11.35;;;16.20;99.90;;;;;;6230458;23;19997;-73
2022/09/25 12:04:23;;;;;;;13.82;10.65;;;16.20;99.90;;;;;;6227772;23;20035;-76
2022/09/25 12:07:10;;;;;;;15.40;11.35;;;16.40;99.90;;;;;;6223623;23;20016;-75
2022/09/25 12:09:57;;;;;;;15.23;11.20;;;16.30;99.90;;;;;;6222731;23;20001;-73
2022/09/25 12:12:48;;;;;;;14.20;10.23;;;16.40;99.90;;;;;;6223442;23;20005;-74
2022/09/25 12:15:26;;;;;;;15.75;11.02;;;16.40;99.90;;;;;;6193255;23;20016;-73
2022/09/25 12:18:12;;;;;;;14.18;9.98;;;16.60;99.90;;;;;;6192913;23;20012;-75
2022/09/25 12:21:00;;;;;;;14.75;10.57;;;16.60;99.90;;;;;;6192567;23;20241;-74
2022/09/25 12:23:31;;;;;;;15.32;10.77;;;16.80;99.90;;;;;;6193164;23;20299;-74
2022/09/25 12:26:14;;;;;;;11.35;8.82;;;17.20;99.90;;;;;;6192244;23;20195;-75
2022/09/25 12:29:05;;;;;;;13.15;9.82;;;17.50;99.90;;;;;;6192598;23;20052;-75
2022/09/25 12:31:38;;;;;;;16.02;10.07;;;18.10;99.90;;;;;;6193296;23;20013;-76
2022/09/25 12:34:10;;;;;;;15.48;10.40;;;18.40;99.90;;;;;;6192853;23;20028;-74
2022/09/25 12:36:46;;;;;;;14.88;10.00;;;18.70;99.90;;;;;;6192270;23;20358;-77
2022/09/25 12:39:26;;;;;;;15.55;10.90;;;19.00;99.90;;;;;;6192603;23;20052;-74
2022/09/25 12:42:05;;;;;;;13.02;9.45;;;19.20;99.90;;;;;;6192050;23;20017;-74
2022/09/25 12:44:43;;;;;;;;;;;19.30;99.90;;;;;;6193258;23;20345;-74
2022/09/25 12:47:23;;;;;;;15.43;9.25;;;20.10;99.90;;;;;;6192537;23;19908;-74
2022/09/25 12:49:59;;;;;;;11.60;8.10;;;21.20;98.40;;;;;;6191926;23;20176;-75
2022/09/25 12:52:33;;;;;;;14.55;9.43;;;22.30;96.30;;;;;;6192038;23;20016;-76
2022/09/25 12:55:15;;;;;;;9.93;8.43;;;22.30;94.90;;;;;;6192034;23;20011;-76
2022/09/25 12:57:47;;;;;;;12.95;9.35;;;21.90;94.90;;;;;;6192037;23;20009;-74
2022/09/25 13:00:12;;;;;;;11.05;8.50;;;21.30;95.40;;;;;;6192848;23;20005;-74
2022/09/25 13:02:47;;;;;;;11.43;8.70;;;20.70;95.90;;;;;;6191857;23;20318;-75
2022/09/25 13:05:32;;;;;;;9.60;7.85;;;20.40;96.90;;;;;;6192432;23;20003;-74
2022/09/25 13:08:14;;;;;;;12.20;9.00;;;20.70;96.40;;;;;;6192014;23;20287;-76
2022/09/25 13:11:01;;;;;;;11.93;8.32;;;20.60;95.50;;;;;;6191880;23;20005;-75
2022/09/25 13:13:29;;;;;;;10.98;7.70;;;20.10;96.40;;;;;;6193067;23;20035;-76
2022/09/25 13:15:58;;;;;;;10.23;7.20;;;19.60;96.70;;;;;;6192214;23;20001;-76
2022/09/25 13:18:27;;;;;;;9.27;7.70;;;19.40;97.20;;;;;;6192734;23;20001;-76
2022/09/25 13:20:54;;;;;;;10.18;7.47;;;19.60;96.10;;;;;;6191700;23;20175;-78
2022/09/25 13:23:20;;;;;;;10.47;7.50;;;19.50;96.60;;;;;;6192478;23;20001;-76
2022/09/25 13:25:58;;;;;;;10.05;7.25;;;19.40;96.10;;;;;;6191715;23;20852;-76
2022/09/25 13:28:32;;;;;;;8.85;6.50;;;19.20;96.40;;;;;;6192336;23;20303;-76
2022/09/25 13:31:09;;;;;;;8.27;6.45;;;19.20;97.10;;;;;;6165758;23;20263;-76
2022/09/25 13:33:49;;;;;;;9.93;6.80;;;19.20;97.60;;;;;;6192358;23;19997;-76
2022/09/25 13:36:49;;;;;;;8.75;6.00;;;18.90;97.40;;;;;;6192360;23;20015;-76
2022/09/25 13:42:44;;;;;;;7.70;5.97;;;18.90;97.10;;;;;;6190824;23;20054;-75
2022/09/25 13:45:28;;;;;;;9.15;5.95;;;19.70;96.40;;;;;;6192584;23;20274;-74
2022/09/25 13:48:12;;;;;;;8.63;5.90;;;21.10;95.30;;;;;;6192983;23;20005;-76
2022/09/25 13:50:40;;;;;;;7.32;5.85;;;22.00;92.60;;;;;;6191871;23;20005;-75
2022/09/25 13:53:19;;;;;;;8.98;6.20;;;22.00;92.00;;;;;;6193508;23;20001;-76
2022/09/25 13:55:53;;;;;;;8.65;6.78;;;21.50;92.60;;;;;;6192786;23;20168;-78
2022/09/25 13:59:01;;;;;;;7.85;6.57;;;20.70;93.40;;;;;;6193830;23;20031;-78
2022/09/25 14:01:38;;;;;;;10.23;7.68;;;20.00;94.00;;;;;;6145600;23;20001;-75
2022/09/25 14:04:13;;;;;;;9.45;6.38;;;19.50;95.70;;;;;;6166026;23;20287;-77
2022/09/25 14:06:41;;;;;;;12.90;9.52;;;19.20;96.00;;;;;;6104977;23;20014;-76
2022/09/25 14:09:21;;;;;;;10.00;6.25;;;19.10;96.00;;;;;;6081739;23;20006;-77
2022/09/25 14:12:07;;;;;;;7.68;5.82;;;19.20;96.10;;;;;;6105071;23;20006;-77
2022/09/25 14:14:44;;;;;;;7.63;5.78;;;19.40;95.80;;;;;;6081595;23;20078;-74
2022/09/25 14:17:15;;;;;;;7.15;5.50;;;19.80;95.20;;;;;;6134917;23;20009;-75
2022/09/25 14:19:47;;;;;;;6.25;4.97;;;20.90;93.90;;;;;;6134772;23;20013;-76
2022/09/25 14:22:47;;;;;;;6.97;4.40;;;21.40;92.70;;;;;;6110120;23;20013;-75
2022/09/25 14:25:39;;;;;;;8.75;4.65;;;21.50;92.30;;;;;;6134992;23;20045;-76
2022/09/25 14:28:23;;;;;;;5.80;4.57;;;22.20;92.40;;;;;;6134650;23;20009;-76
2022/09/25 14:31:11;;;;;;;6.40;4.60;;;23.30;90.20;;;;;;6134094;23;20378;-75
2022/09/25 14:33:54;;;;;;;6.25;4.20;;;22.60;90.80;;;;;;6110464;23;20013;-76
2022/09/25 14:36:49;;;;;;;5.90;4.22;;;21.90;91.40;;;;;;6134431;23;20001;-78
2022/09/25 14:39:52;;;;;;;5.63;4.75;;;21.80;92.10;;;;;;6086215;23;20165;-76
2022/09/25 14:42:53;;;;;;;5.47;4.28;;;21.90;91.20;;;;;;6110004;23;20025;-76
2022/09/25 14:45:40;;;;;;;6.43;4.95;;;21.50;92.10;;;;;;6134489;23;20300;-75
2022/09/25 14:48:14;;;;;;;5.80;4.75;;;21.50;92.50;;;;;;6123282;23;20180;-77
2022/09/25 14:50:51;;;;;;;8.18;5.45;;;21.60;92.00;;;;;;6166510;23;20008;-77
2022/09/25 14:53:32;;;;;;;7.50;5.15;;;21.10;92.10;;;;;;6165715;23;19998;-75
2022/09/25 14:56:00;;;;;;;6.82;4.28;;;21.20;92.00;;;;;;6165584;23;20001;-75
2022/09/25 14:58:31;;;;;;;6.07;3.95;;;21.10;92.00;;;;;;6165804;23;20106;-76
2022/09/25 15:01:30;;;;;;;6.13;4.00;;;21.20;91.40;;;;;;6139849;23;20033;-73
2022/09/25 15:04:05;;;;;;;6.43;3.88;;;21.00;91.30;;;;;;6132983;23;20009;-78
2022/09/25 15:06:38;;;;;;;6.68;3.88;;;20.90;91.70;;;;;;6165103;23;20001;-77
2022/09/25 15:09:47;;;;;;;4.70;3.45;;;21.50;91.30;;;;;;6165772;23;20239;-76
2022/09/25 15:12:28;;;;;;;4.63;3.50;;;22.90;88.80;;;;;;6139164;23;20024;-76
2022/09/25 15:14:59;;;;;;;5.65;3.42;;;23.50;87.00;;;;;;6164247;23;20005;-75
2022/09/25 15:17:27;;;;;;;5.93;3.67;;;22.30;86.80;;;;;;6140187;23;20002;-77
2022/09/25 15:19:56;;;;;;;4.07;3.30;;;21.40;90.00;;;;;;6139859;23;20005;-76
2022/09/25 15:22:26;;;;;;;4.53;3.03;;;21.20;88.70;;;;;;6140404;23;20029;-76
2022/09/25 15:24:57;;;;;;;5.78;3.90;;;21.00;90.10;;;;;;6166076;23;19998;-77
2022/09/25 15:27:23;;;;;;;4.20;3.00;;;21.40;90.20;;;;;;6164654;23;20015;-75
2022/09/25 15:29:49;;;;;;;5.57;3.10;;;23.10;87.10;;;;;;6139682;23;20005;-76
2022/09/25 15:32:27;;;;;;;4.10;2.97;;;24.90;82.60;;;;;;6166191;23;20129;-77
2022/09/25 15:35:09;;;;;;;4.20;3.10;;;25.80;79.20;;;;;;6165522;23;20001;-78
2022/09/25 15:37:36;;;;;;;4.07;2.60;;;27.20;76.40;;;;;;6164216;23;20025;-77
2022/09/25 15:40:24;;;;;;;5.18;2.95;;;27.80;74.20;;;;;;6164127;23;20001;-76
2022/09/25 15:42:50;;;;;;;3.85;2.60;;;27.30;71.30;;;;;;6138946;23;19998;-76
2022/09/25 15:45:57;;;;;;;4.47;3.10;;;26.20;73.00;;;;;;6165978;23;20001;-76
2022/09/25 15:48:28;;;;;;;4.95;3.25;;;25.50;74.30;;;;;;6163661;23;20017;-77
2022/09/25 15:50:56;;;;;;;4.97;3.60;;;25.30;75.20;;;;;;6139160;23;20009;-77
2022/09/25 15:53:31;;;;;;;5.75;3.83;;;25.30;75.20;;;;;;6139840;23;19993;-77
2022/09/25 15:56:15;;;;;;;7.18;4.30;;;23.70;78.80;;;;;;6165710;23;20001;-74
2022/09/25 15:58:45;;;;;;;5.95;4.32;;;22.40;81.70;;;;;;6164652;23;20032;-75
2022/09/25 16:06:44;;;;;;;5.93;4.63;;;22.20;84.20;;;;;;6165607;23;20094;-76
2022/09/25 16:09:31;;;;;;;5.07;3.40;;;23.10;82.10;;;;;;6138516;23;20001;-76
2022/09/25 16:12:21;;;;;;;4.50;2.90;;;24.00;80.60;;;;;;6165235;23;20277;-75
2022/09/25 16:14:48;;;;;;;4.88;2.67;;;25.20;78.20;;;;;;6164879;23;19997;-76
2022/09/25 16:17:32;;;;;;;2.30;1.60;;;24.40;78.70;;;;;;6165422;23;20006;-75
2022/09/25 16:19:59;;;;;;;2.92;1.60;;;22.80;82.50;;;;;;6164671;23;20036;-75
2022/09/25 16:22:26;;;;;;;2.83;1.35;;;21.90;85.60;;;;;;6164047;23;20001;-75
2022/09/25 16:24:53;;;;;;;2.97;1.73;;;20.70;89.10;;;;;;6139025;23;20013;-76
2022/09/25 16:27:42;;;;;;;1.58;0.98;;;19.80;91.20;;;;;;6139557;23;20073;-77
2022/09/25 16:30:15;;;;;;;1.80;0.90;;;19.00;91.10;;;;;;6164593;23;20001;-76
2022/09/25 16:32:48;;;;;;;2.30;1.15;;;18.30;92.40;;;;;;6163380;23;20017;-75
2022/09/25 16:35:35;;;;;;;1.55;0.77;;;17.70;93.50;;;;;;6138986;23;20017;-76
2022/09/25 16:38:02;;;;;;;3.10;1.42;;;17.20;94.40;;;;;;6138831;23;20012;-76
2022/09/25 16:40:32;;;;;;;3.70;1.88;;;16.90;95.30;;;;;;6139496;23;19993;-76
2022/09/25 16:43:00;;;;;;;2.88;1.50;;;16.70;96.10;;;;;;6163053;23;20009;-76
2022/09/25 16:45:34;;;;;;;3.42;1.60;;;16.50;96.70;;;;;;6165138;23;20078;-75
2022/09/25 16:48:22;;;;;;;2.80;1.65;;;16.30;97.40;;;;;;6165101;23;20005;-76
2022/09/25 16:50:48;;;;;;;2.47;1.33;;;16.10;98.40;;;;;;6118001;23;20012;-76
2022/09/25 16:53:15;;;;;;;4.30;1.70;;;16.00;99.10;;;;;;6169344;23;19997;-75
2022/09/25 16:55:52;;;;;;;2.72;1.50;;;15.80;99.90;;;;;;6170135;23;20053;-75
2022/09/25 16:58:24;;;;;;;3.88;1.70;;;15.70;99.90;;;;;;6171221;23;20012;-78
2022/09/25 17:00:51;;;;;;;3.50;2.22;;;15.60;99.90;;;;;;6145583;23;20318;-77
2022/09/25 17:03:17;;;;;;;3.28;2.40;;;15.60;99.90;;;;;;6163642;23;20012;-77
2022/09/25 17:05:43;;;;;;;3.83;2.40;;;15.60;99.90;;;;;;6171134;23;20000;-78
2022/09/25 17:08:18;;;;;;;3.33;2.50;;;15.50;99.90;;;;;;6169682;23;20005;-75
2022/09/25 17:10:46;;;;;;;3.97;2.35;;;15.60;99.90;;;;;;6168778;23;20382;-77
2022/09/25 17:13:13;;;;;;;;;;;15.50;99.90;;;;;;6196327;23;20005;-74
2022/09/25 17:15:39;;;;;;;3.42;2.30;;;15.40;99.90;;;;;;6195846;23;19900;-77
2022/09/25 17:18:25;;;;;;;2.80;1.90;;;15.30;99.90;;;;;;6193497;23;20005;-76
2022/09/25 17:20:55;;;;;;;3.80;2.40;;;15.20;99.90;;;;;;6168625;23;20004;-75
2022/09/25 17:23:24;;;;;;;3.55;1.85;;;15.10;99.90;;;;;;6169140;23;20044;-74
2022/09/25 17:26:12;;;;;;;4.05;2.08;;;15.10;99.90;;;;;;6103755;23;20193;-74
2022/09/25 17:28:38;;;;;;;3.78;2.22;;;15.00;99.90;;;;;;6079544;23;20020;-77
2022/09/25 17:31:03;;;;;;;3.53;2.45;;;14.90;99.90;;;;;;6103537;23;19998;-75
2022/09/25 17:33:31;;;;;;;4.40;2.85;;;14.80;99.90;;;;;;6079743;23;20010;-77
2022/09/25 17:36:04;;;;;;;6.47;3.47;;;14.70;99.90;;;;;;6103013;23;20033;-77
2022/09/25 17:38:33;;;;;;;5.53;3.70;;;14.60;99.90;;;;;;6103689;23;20065;-76
2022/09/25 17:41:20;;;;;;;7.05;5.25;;;14.50;99.90;;;;;;6103214;23;20330;-73
2022/09/25 17:43:46;;;;;;;8.77;5.85;;;14.50;99.90;;;;;;6103628;23;20033;-76
2022/09/25 17:46:17;;;;;;;8.25;5.75;;;14.40;99.90;;;;;;6078613;23;20289;-76
2022/09/25 17:48:46;;;;;;;7.18;5.55;;;14.40;99.90;;;;;;6103698;23;20022;-75
2022/09/25 17:51:17;;;;;;;7.50;5.68;;;14.40;99.90;;;;;;6103061;23;20221;-74
2022/09/25 17:53:44;;;;;;;7.32;5.55;;;14.30;99.90;;;;;;6103603;23;20021;-75
2022/09/25 17:56:11;;;;;;;8.25;5.90;;;14.20;99.90;;;;;;6103398;23;20145;-75
2022/09/25 17:58:37;;;;;;;9.30;5.88;;;14.20;99.90;;;;;;6103434;23;20099;-76
2022/09/25 18:01:16;;;;;;;7.57;6.03;;;14.10;99.90;;;;;;6103275;23;19999;-76
2022/09/25 18:03:42;;;;;;;8.27;6.40;;;14.10;99.90;;;;;;6165915;23;20021;-75
2022/09/25 18:06:11;;;;;;;8.95;6.07;;;14.10;99.90;;;;;;6192689;23;20028;-80
2022/09/25 18:08:37;;;;;;;8.70;6.30;;;14.00;99.90;;;;;;6168149;23;20024;-75
2022/09/25 18:11:03;;;;;;;8.30;6.50;;;14.10;99.90;;;;;;6193562;23;20190;-75
2022/09/25 18:13:28;;;;;;;10.90;7.60;;;14.10;99.90;;;;;;6168110;23;19986;-76
2022/09/25 18:15:58;;;;;;;11.07;7.88;;;14.00;99.90;;;;;;6194213;23;20012;-75
2022/09/25 18:22:15;;;;;;;10.20;7.65;;;14.00;99.90;;;;;;6194496;23;20012;-76
2022/09/25 18:23:57;;;;;;;10.93;7.82;;;13.90;99.90;;;;;;6167058;23;20025;-76
2022/09/25 18:26:23;;;;;;;10.90;8.30;;;13.90;99.90;;;;;;6195045;23;20009;-76
2022/09/25 18:28:49;;;;;;;12.65;8.38;;;13.90;99.90;;;;;;6194557;23;20009;-75
2022/09/25 18:31:15;;;;;;;11.82;8.57;;;13.90;99.90;;;;;;6167894;23;20075;-75
2022/09/25 18:33:41;;;;;;;14.57;9.27;;;13.90;99.90;;;;;;6193357;23;20345;-75
2022/09/25 18:36:07;;;;;;;11.95;8.82;;;13.80;99.90;;;;;;6192238;23;20005;-76
2022/09/25 18:38:33;;;;;;;12.02;9.00;;;13.90;99.90;;;;;;6168064;23;20048;-76
2022/09/25 18:41:02;;;;;;;13.35;9.60;;;13.80;99.90;;;;;;6167849;23;20005;-77
2022/09/25 18:43:28;;;;;;;12.80;9.48;;;13.70;99.90;;;;;;6167906;23;20009;-77
2022/09/25 18:45:54;;;;;;;16.08;10.48;;;13.70;99.90;;;;;;6194750;23;20195;-75